AirNav   Air Wisconsin Up To $57,000 Bonus
 
 1252 users online  

FL05 GEICO Helistop Heliport
Orlando, Florida, USA


FAA INFORMATION EFFECTIVE 07 NOVEMBER 2019

Location

FAA Identifier: FL05
Lat/Long: 28-32-14.8600N 081-23-04.1400W
28-32.247667N 081-23.069000W
28.5374611,-81.3844833
(estimated)
Elevation: 197 ft. / 60 m (estimated)
Time zone: UTC -5 (UTC -4 during Daylight Saving Time)
Zip code: 32801

Heliport Operations

Heliport use: Private use. Permission required prior to landing
Activation date: 03/2019
Control tower: no
ARTCC: JACKSONVILLE CENTER
FSS: SAINT PETERSBURG FLIGHT SERVICE STATION
Attendance: 
Wind indicator: lighted
Segmented circle: no
Lights: ON DEMAND SWITCH ACT - CTC AMGR FOR INFO.
Landing fee: yes

Heliport Communications

WX ASOS at ORL (2.8 nm E): PHONE 407-658-6753
WX ASOS at MCO (8 nm SE): PHONE 407-855-5235
WX AWOS-3PT at ISM (15 nm S): 128.775 (407-847-0533)
WX ASOS at SFB (16 nm NE): PHONE 407-321-9384

Nearby radio navigation aids

VOR radial/distance  VOR name  Freq  Var
ORLr263/2.6ORLANDO VORTAC112.2000E

Heliport Services

Runway Information

Helipad H1

Dimensions: 38 x 38 ft. / 12 x 12 m
Surface: concrete, in excellent condition
Runway edge lights: PERI
Latitude: 28-32.247667N
Longitude: 081-23.069000W
Elevation: 197.0 ft.
Traffic pattern: leftleft
Markings: numbers only

Heliport Ownership and Management from official FAA records

Ownership: Privately-owned
Owner: CITY OF ORLANDO
400 S ORANGE AVE
ORLANDO, FL 32801
Phone 407-440-7000
Manager: WALTER ALLEN JOHNSON
400 W. CHURCH ST, STE 200
ORLANDO, FL 32801
Phone 407-440-7010

Instrument Procedures

There are no published instrument procedures at FL05.

Some nearby airports with instrument procedures:

KORL - Executive Airport (3 nm E)
KMCO - Orlando International Airport (8 nm SE)
X04 - Orlando Apopka Airport (15 nm NW)
KISM - Kissimmee Gateway Airport (15 nm S)
KSFB - Orlando Sanford International Airport (16 nm NE)
 
Loc | Ops | Rwys | IFR | FBO | Links
Com | Nav | Svcs | Stats | Notes
Aerial photo
No photo
 
Airport distance calculator
Flying to GEICO Helistop Heliport? Find the distance to fly.

From to FL05

Sunrise and sunset
Times for 15-Nov-2019
 Local
(UTC-5)
 Zulu
(UTC)
Morning civil twilight06:2411:24
Sunrise06:4911:49
Sunset17:3122:31
Evening civil twilight17:5622:56

Current date and time
Zulu (UTC)  15-Nov-2019 20:30:29
Local (UTC-5)  15-Nov-2019 15:30:29
 
METAR
KORL 
3nm E 
152022Z 31009KT 10SM OVC015 22/18 A2989 RMK AO2 T02170178
KMCO 
8nm S 
151953Z 30007KT 10SM BKN016 OVC095 23/18 A2989 RMK AO2 SLP119 T02280183
KISM 
15nm S 
152020Z 29007KT 10SM SCT020 OVC090 23/19 A2989 RMK AO2 PNO $
KSFB 
16nm NE 
152014Z 29010KT 10SM OVC015 22/18 A2989 RMK AO2 T02170178
TAF
KMCO 
8nm S 
151750Z 1518/1624 31005KT P6SM VCSH SCT008 BKN020 OVC040 FM152000 31007KT P6SM SCT008 BKN015 OVC035 FM160000 31008KT P6SM BKN008 OVC015 FM161400 32012KT P6SM SCT008 BKN015 FM161800 33013KT P6SM SCT020 BKN035
KISM 
15nm S 
151750Z 1518/1618 31005KT P6SM VCSH SCT008 BKN020 OVC040 FM152000 31007KT P6SM SCT008 BKN015 OVC035 FM160000 31008KT P6SM BKN008 OVC015 FM161400 32012KT P6SM SCT008 BKN015
KSFB 
16nm NE 
151750Z 1518/1618 30007KT P6SM VCSH BKN008 OVC015 FM160000 31008KT P6SM OVC007 FM161400 32012KT P6SM SCT008 BKN015
NOTAMs
Click for the latest NOTAMs
NOTAMs are issued by the DoD/FAA and will open in a separate window not controlled by AirNav.

 

 
 

Would you like to see your business listed on this page?

 If your business provides an interesting product or service to pilots, flight crews, aircraft, or users of the GEICO Helistop Heliport, you should consider listing it here.  To start the listing process, click on the button below
 
Add a business
 

Other Pages about GEICO Helistop Heliport

Update a link
 
Copyright © AirNav, LLC. All rights reserved. Privacy Policy  Contact